createdAt,value
2023-03-29T00:00:51.426Z,100738.83
2023-03-29T00:03:03.192Z,100739.95
2023-03-29T00:05:15.207Z,100743.36
2023-03-29T00:07:26.611Z,100740.45
2023-03-29T00:09:36.992Z,100740.70
2023-03-29T00:11:46.900Z,100741.59
2023-03-29T00:13:56.972Z,100740.61
2023-03-29T00:16:07.772Z,100739.84
2023-03-29T00:18:18.512Z,100738.92
2023-03-29T00:20:31.090Z,100740.27
2023-03-29T00:22:43.751Z,100739.11
2023-03-29T00:24:54.673Z,100741.28
2023-03-29T00:27:04.690Z,100739.78
2023-03-29T00:29:14.729Z,100742.67
2023-03-29T00:31:24.454Z,100743.20
2023-03-29T00:33:34.758Z,100741.42
2023-03-29T00:35:44.976Z,100748.27
2023-03-29T00:37:54.908Z,100754.36
2023-03-29T00:40:18.840Z,100757.11
2023-03-29T00:42:31.982Z,100758.30
2023-03-29T00:45:21.191Z,100759.06
2023-03-29T00:47:34.822Z,100758.99
2023-03-29T00:49:45.449Z,100757.64
2023-03-29T00:51:55.662Z,100758.45
2023-03-29T00:54:07.060Z,100756.90
2023-03-29T00:56:20.951Z,100761.44
2023-03-29T00:58:37.512Z,100763.09
2023-03-29T01:00:54.643Z,100760.54
2023-03-29T01:03:14.103Z,100762.33
2023-03-29T01:05:30.073Z,100762.07
2023-03-29T01:07:48.562Z,100763.89
2023-03-29T01:10:01.989Z,100760.39
2023-03-29T01:12:19.148Z,100762.02
2023-03-29T01:14:36.285Z,100756.06
2023-03-29T01:16:47.353Z,100759.05
2023-03-29T01:18:58.737Z,100757.27
2023-03-29T01:21:29.794Z,100755.34
2023-03-29T01:23:58.719Z,100757.75
2023-03-29T01:26:16.953Z,100757.64
2023-03-29T01:28:32.029Z,100760.59
2023-03-29T01:30:48.802Z,100753.67
2023-03-29T01:33:02.272Z,100752.17
2023-03-29T01:35:17.966Z,100749.56
2023-03-29T01:37:32.824Z,100750.77
2023-03-29T01:39:42.765Z,100750.32
2023-03-29T01:42:05.313Z,100749.18
2023-03-29T01:44:20.798Z,100750.11
2023-03-29T01:46:36.556Z,100749.77
2023-03-29T01:48:52.893Z,100749.74
2023-03-29T01:51:09.630Z,100750.91
2023-03-29T01:53:25.164Z,100747.48
2023-03-29T01:55:38.820Z,100747.48
2023-03-29T01:57:51.092Z,100744.73
2023-03-29T02:00:07.814Z,100742.91
2023-03-29T02:02:22.838Z,100739.61
2023-03-29T02:04:38.523Z,100737.77
2023-03-29T02:06:50.993Z,100735.02
2023-03-29T02:09:01.020Z,100735.71
2023-03-29T02:11:11.151Z,100731.98
2023-03-29T02:13:21.583Z,100726.75
2023-03-29T02:15:32.359Z,100719.34
2023-03-29T02:17:42.907Z,100718.52
2023-03-29T02:19:56.423Z,100714.74
2023-03-29T02:22:11.860Z,100712.34
2023-03-29T02:24:26.663Z,100709.62
2023-03-29T02:26:37.177Z,100708.90
2023-03-29T02:28:47.165Z,100705.89
2023-03-29T02:31:01.970Z,100704.09
2023-03-29T02:33:17.416Z,100700.20
2023-03-29T02:35:35.368Z,100699.98
2023-03-29T02:37:49.952Z,100700.65
2023-03-29T02:40:01.479Z,100695.58
2023-03-29T02:42:12.603Z,100695.71
2023-03-29T02:44:26.693Z,100698.06
2023-03-29T02:46:38.494Z,100699.16
2023-03-29T02:48:51.904Z,100702.23
2023-03-29T02:51:07.486Z,100697.58
2023-03-29T02:53:21.515Z,100703.01
2023-03-29T02:55:36.166Z,100713.56
2023-03-29T02:57:46.688Z,100716.75
2023-03-29T02:59:57.906Z,100720.04
2023-03-29T03:02:07.945Z,100724.98
2023-03-29T03:04:21.556Z,100729.26
2023-03-29T03:06:33.805Z,100727.69
2023-03-29T03:08:46.751Z,100730.77
2023-03-29T03:10:57.363Z,100736.02
2023-03-29T03:13:07.755Z,100736.88
2023-03-29T03:15:18.384Z,100736.98
2023-03-29T03:17:28.789Z,100743.73
2023-03-29T03:19:39.324Z,100745.71
2023-03-29T03:21:50.052Z,100752.79
2023-03-29T03:24:00.359Z,100755.95
2023-03-29T03:26:11.462Z,100755.52
2023-03-29T03:28:24.635Z,100750.20
2023-03-29T03:30:35.279Z,100750.52
2023-03-29T03:33:03.465Z,100750.21
2023-03-29T03:35:32.261Z,100749.10
2023-03-29T03:37:43.441Z,100751.10
2023-03-29T03:39:54.464Z,100753.02
2023-03-29T03:42:07.889Z,100756.11
2023-03-29T03:44:22.824Z,100759.59
2023-03-29T03:46:48.970Z,100767.42
2023-03-29T03:48:59.910Z,100766.05
2023-03-29T03:51:16.798Z,100765.24
2023-03-29T03:53:28.332Z,100766.48
2023-03-29T03:55:58.637Z,100769.28
2023-03-29T03:58:14.509Z,100769.84
2023-03-29T04:00:25.006Z,100768.55
2023-03-29T04:02:44.737Z,100770.92
2023-03-29T04:04:55.529Z,100769.32
2023-03-29T04:07:13.894Z,100773.50
2023-03-29T04:09:42.950Z,100778.39
2023-03-29T04:12:10.091Z,100781.95
2023-03-29T04:14:21.162Z,100783.06
2023-03-29T04:16:31.991Z,100783.00
2023-03-29T04:18:50.748Z,100783.65
2023-03-29T04:21:01.650Z,100783.77
2023-03-29T04:23:14.124Z,100782.17
2023-03-29T04:25:24.597Z,100781.19
2023-03-29T04:28:01.157Z,100778.33
2023-03-29T04:30:34.621Z,100777.72
2023-03-29T04:33:13.505Z,100781.61
2023-03-29T04:35:24.925Z,100780.21
2023-03-29T04:37:35.110Z,100782.42
2023-03-29T04:39:45.855Z,100786.34
2023-03-29T04:41:56.097Z,100784.64
2023-03-29T04:44:10.308Z,100787.20
2023-03-29T04:46:20.614Z,100792.52
2023-03-29T04:48:54.417Z,100786.80
2023-03-29T04:51:13.316Z,100786.73
2023-03-29T04:53:24.724Z,100782.87
2023-03-29T04:55:34.487Z,100776.98
2023-03-29T04:57:46.187Z,100771.63
2023-03-29T05:00:01.970Z,100770.83
2023-03-29T05:02:38.225Z,100765.27
2023-03-29T05:04:48.388Z,100778.80
2023-03-29T05:06:59.845Z,100783.40
2023-03-29T05:09:11.165Z,100778.33
2023-03-29T05:11:28.962Z,100781.13
2023-03-29T05:13:40.493Z,100785.77
2023-03-29T05:15:50.475Z,100786.40
2023-03-29T05:18:01.203Z,100791.38
2023-03-29T05:20:13.752Z,100798.66
2023-03-29T05:22:26.311Z,100802.33
2023-03-29T05:24:39.158Z,100801.55
2023-03-29T05:26:57.028Z,100798.73
2023-03-29T05:29:09.712Z,100796.65
2023-03-29T05:31:20.605Z,100798.26
2023-03-29T05:33:36.941Z,100802.69
2023-03-29T05:35:47.979Z,100804.84
2023-03-29T05:37:58.793Z,100804.70
2023-03-29T05:40:10.792Z,100808.22
2023-03-29T05:42:47.159Z,100806.48
2023-03-29T05:44:59.469Z,100805.98
2023-03-29T05:47:09.460Z,100801.80
2023-03-29T05:49:19.318Z,100802.77
2023-03-29T05:51:39.945Z,100794.95
2023-03-29T05:53:49.711Z,100796.08
2023-03-29T05:55:59.714Z,100796.32
2023-03-29T05:58:10.783Z,100796.08
2023-03-29T06:00:26.111Z,100795.35
2023-03-29T06:02:42.814Z,100798.23
2023-03-29T06:04:54.378Z,100805.02
2023-03-29T06:07:07.524Z,100806.84
2023-03-29T06:09:20.965Z,100807.52
2023-03-29T06:11:42.214Z,100807.67
2023-03-29T06:14:05.295Z,100806.21
2023-03-29T06:16:16.020Z,100799.67
2023-03-29T06:18:26.073Z,100798.42
2023-03-29T06:20:35.992Z,100795.80
2023-03-29T06:22:50.502Z,100793.71
2023-03-29T06:25:00.301Z,100793.30
2023-03-29T06:27:12.435Z,100788.53
2023-03-29T06:29:26.324Z,100786.78
2023-03-29T06:31:37.762Z,100780.05
2023-03-29T06:33:48.534Z,100774.38
2023-03-29T06:36:17.138Z,100770.83
2023-03-29T06:38:28.795Z,100769.21
2023-03-29T06:41:04.691Z,100764.27
2023-03-29T06:43:30.215Z,100763.82
2023-03-29T06:45:50.974Z,100761.92
2023-03-29T06:48:17.098Z,100758.31
2023-03-29T06:50:28.343Z,100751.41
2023-03-29T06:53:04.828Z,100751.59
2023-03-29T06:55:16.462Z,100747.36
2023-03-29T06:57:26.804Z,100745.96
2023-03-29T06:59:37.193Z,100744.50
2023-03-29T07:02:09.236Z,100740.61
2023-03-29T07:04:32.867Z,100739.40
2023-03-29T07:07:02.918Z,100738.83
2023-03-29T07:09:18.280Z,100739.48
2023-03-29T07:11:55.214Z,100739.27
2023-03-29T07:14:06.553Z,100739.81
2023-03-29T07:16:16.978Z,100742.61
2023-03-29T07:18:37.000Z,100744.59
2023-03-29T07:20:48.044Z,100748.66
2023-03-29T07:22:58.452Z,100749.77
2023-03-29T07:25:10.037Z,100753.69
2023-03-29T07:27:21.258Z,100748.24
2023-03-29T07:29:31.872Z,100750.83
2023-03-29T07:31:42.552Z,100752.02
2023-03-29T07:34:33.162Z,100751.45
2023-03-29T07:36:44.287Z,100752.39
2023-03-29T07:38:56.309Z,100750.76
2023-03-29T07:41:08.506Z,100754.86
2023-03-29T07:43:33.000Z,100759.33
2023-03-29T07:45:45.143Z,100755.45
2023-03-29T07:47:59.048Z,100759.08
2023-03-29T07:50:15.398Z,100761.66
2023-03-29T07:52:26.030Z,100761.62
2023-03-29T07:54:36.139Z,100763.65
2023-03-29T07:57:09.457Z,100758.91
2023-03-29T07:59:25.290Z,100762.98
2023-03-29T08:01:43.539Z,100763.53
2023-03-29T08:04:12.823Z,100768.27
2023-03-29T08:06:41.328Z,100769.95
2023-03-29T08:08:51.270Z,100775.65
2023-03-29T08:11:01.257Z,100776.61
2023-03-29T08:13:40.671Z,100778.21
2023-03-29T08:16:12.388Z,100781.02
2023-03-29T08:18:32.847Z,100783.09
2023-03-29T08:20:45.343Z,100784.70
2023-03-29T08:22:56.392Z,100784.73
2023-03-29T08:25:39.335Z,100789.45
2023-03-29T08:27:51.266Z,100788.93
2023-03-29T08:30:13.469Z,100787.34
2023-03-29T08:32:24.052Z,100785.95
2023-03-29T08:34:36.336Z,100790.75
2023-03-29T08:37:04.159Z,100792.89
2023-03-29T08:39:27.534Z,100789.57
2023-03-29T08:42:10.003Z,100789.23
2023-03-29T08:44:29.533Z,100792.14
2023-03-29T08:46:52.499Z,100793.71
2023-03-29T08:49:12.720Z,100794.10
2023-03-29T08:51:27.981Z,100794.30
2023-03-29T08:53:43.264Z,100797.23
2023-03-29T08:56:20.352Z,100797.55
2023-03-29T08:58:50.134Z,100796.68
2023-03-29T09:01:02.971Z,100793.73
2023-03-29T09:03:24.302Z,100786.86
2023-03-29T09:05:41.074Z,100786.71
2023-03-29T09:08:07.773Z,100786.45
2023-03-29T09:10:19.875Z,100784.92
2023-03-29T09:12:43.628Z,100788.34
2023-03-29T09:15:07.359Z,100787.20
2023-03-29T09:17:37.896Z,100789.92
2023-03-29T09:19:57.143Z,100794.25
2023-03-29T09:22:17.621Z,100794.73
2023-03-29T09:25:02.757Z,100794.11
2023-03-29T09:27:18.884Z,100794.58
2023-03-29T09:29:51.892Z,100803.11
2023-03-29T09:32:13.144Z,100806.26
2023-03-29T09:34:30.787Z,100805.66
2023-03-29T09:36:52.802Z,100807.12
2023-03-29T09:39:05.421Z,100817.04
2023-03-29T09:41:25.372Z,100815.55
2023-03-29T09:43:40.441Z,100815.60
2023-03-29T09:45:59.678Z,100813.29
2023-03-29T09:48:15.357Z,100813.69
2023-03-29T09:50:33.328Z,100808.02
2023-03-29T09:52:44.989Z,100804.55
2023-03-29T09:55:02.095Z,100802.00
2023-03-29T09:57:35.663Z,100796.63
2023-03-29T09:59:46.589Z,100789.64
2023-03-29T10:02:07.240Z,100783.19
2023-03-29T10:04:22.032Z,100784.73
2023-03-29T10:06:37.262Z,100783.14
2023-03-29T10:08:53.934Z,100780.25
2023-03-29T10:11:09.157Z,100782.29
2023-03-29T10:13:24.585Z,100784.51
2023-03-29T10:15:35.083Z,100792.96
2023-03-29T10:17:46.606Z,100793.96
2023-03-29T10:19:58.619Z,100792.23
2023-03-29T10:22:17.111Z,100792.96
2023-03-29T10:24:28.903Z,100794.06
2023-03-29T10:26:40.543Z,100797.44
2023-03-29T10:28:53.292Z,100799.27
2023-03-29T10:31:06.684Z,100802.98
2023-03-29T10:33:24.480Z,100804.19
2023-03-29T10:35:40.782Z,100798.76
2023-03-29T10:37:55.636Z,100797.47
2023-03-29T10:40:06.401Z,100792.55
2023-03-29T10:42:18.637Z,100792.16
2023-03-29T10:44:34.966Z,100792.67
2023-03-29T10:46:47.509Z,100794.46
2023-03-29T10:48:58.565Z,100794.32
2023-03-29T10:51:09.747Z,100792.17
2023-03-29T10:53:25.389Z,100791.48
2023-03-29T10:55:41.553Z,100794.46
2023-03-29T10:58:03.314Z,100797.41
2023-03-29T11:00:20.321Z,100796.55
2023-03-29T11:03:07.111Z,100799.73
2023-03-29T11:05:26.401Z,100800.81
2023-03-29T11:07:42.382Z,100801.95
2023-03-29T11:10:01.475Z,100799.38
2023-03-29T11:12:19.201Z,100802.24
2023-03-29T11:14:40.932Z,100799.54
2023-03-29T11:17:01.055Z,100799.85
2023-03-29T11:19:22.334Z,100801.48
2023-03-29T11:21:41.474Z,100801.09
2023-03-29T11:23:59.125Z,100801.77
2023-03-29T11:26:18.471Z,100802.91
2023-03-29T11:28:39.518Z,100801.13
2023-03-29T11:30:59.786Z,100799.17
2023-03-29T11:33:32.442Z,100797.40
2023-03-29T11:35:50.374Z,100797.76
2023-03-29T11:38:07.852Z,100795.11
2023-03-29T11:40:40.730Z,100792.85
2023-03-29T11:42:56.066Z,100793.98
2023-03-29T11:45:08.599Z,100790.69
2023-03-29T11:47:20.008Z,100792.25
2023-03-29T11:49:35.308Z,100793.20
2023-03-29T11:51:49.751Z,100793.55
2023-03-29T11:54:10.080Z,100794.64
2023-03-29T11:56:26.694Z,100795.03
2023-03-29T11:58:42.051Z,100791.05
2023-03-29T12:00:59.047Z,100785.09
2023-03-29T12:03:14.952Z,100784.08
2023-03-29T12:05:28.950Z,100782.86
2023-03-29T12:07:44.312Z,100779.94
2023-03-29T12:09:58.755Z,100777.02
2023-03-29T12:12:15.842Z,100777.77
2023-03-29T12:14:30.617Z,100778.20
2023-03-29T12:16:46.410Z,100776.54
2023-03-29T12:19:00.188Z,100778.71
2023-03-29T12:21:15.075Z,100776.17
2023-03-29T12:23:26.167Z,100777.14
2023-03-29T12:25:47.217Z,100778.08
2023-03-29T12:28:08.286Z,100779.21
2023-03-29T12:30:41.440Z,100781.55
2023-03-29T12:33:12.029Z,100782.64
2023-03-29T12:35:39.082Z,100781.63
2023-03-29T12:38:15.804Z,100782.73
2023-03-29T12:40:48.399Z,100782.80
2023-03-29T12:43:31.006Z,100782.85
2023-03-29T12:46:12.383Z,100784.32
2023-03-29T12:48:25.293Z,100788.89
2023-03-29T12:50:39.916Z,100786.41
2023-03-29T12:52:49.875Z,100781.91
2023-03-29T12:55:01.526Z,100780.57
2023-03-29T12:57:28.565Z,100778.88
2023-03-29T12:59:46.877Z,100778.13
2023-03-29T13:02:26.453Z,100777.15
2023-03-29T13:04:51.450Z,100775.09
2023-03-29T13:07:07.579Z,100777.48
2023-03-29T13:09:30.034Z,100778.21
2023-03-29T13:11:44.290Z,100781.63
2023-03-29T13:13:55.553Z,100783.34
2023-03-29T13:16:17.480Z,100783.44
2023-03-29T13:18:51.445Z,100778.65
2023-03-29T13:21:12.145Z,100776.46
2023-03-29T13:23:42.562Z,100778.84
2023-03-29T13:26:13.646Z,100781.96
2023-03-29T13:28:31.766Z,100782.10
2023-03-29T13:30:54.608Z,100783.39
2023-03-29T13:33:21.486Z,100787.27
2023-03-29T13:35:44.052Z,100787.05
2023-03-29T13:38:07.176Z,100785.86
2023-03-29T13:40:45.329Z,100786.62
2023-03-29T13:43:02.374Z,100788.21
2023-03-29T13:45:19.175Z,100790.54
2023-03-29T13:47:58.254Z,100788.67
2023-03-29T13:50:19.485Z,100777.90
2023-03-29T13:52:32.962Z,100772.59
2023-03-29T13:54:48.457Z,100768.16
2023-03-29T13:57:08.191Z,100771.14
2023-03-29T13:59:22.614Z,100768.98
2023-03-29T14:01:40.190Z,100777.09
2023-03-29T14:03:52.235Z,100779.58
2023-03-29T14:06:05.377Z,100782.88
2023-03-29T14:08:23.033Z,100786.90
2023-03-29T14:10:38.244Z,100793.30
2023-03-29T14:12:48.583Z,100795.64
2023-03-29T14:15:06.239Z,100801.45
2023-03-29T14:17:23.124Z,100800.96
2023-03-29T14:19:37.124Z,100793.77
2023-03-29T14:21:47.984Z,100794.55
2023-03-29T14:24:02.814Z,100797.59
2023-03-29T14:26:19.492Z,100801.52
2023-03-29T14:28:31.143Z,100802.90
2023-03-29T14:30:48.456Z,100808.21
2023-03-29T14:32:59.065Z,100812.32
2023-03-29T14:35:13.328Z,100813.75
2023-03-29T14:37:30.753Z,100813.90
2023-03-29T14:39:42.632Z,100818.42
2023-03-29T14:41:54.902Z,100825.45
2023-03-29T14:44:05.261Z,100831.58
2023-03-29T14:46:17.629Z,100834.73
2023-03-29T14:48:25.583Z,100840.16
2023-03-29T14:50:35.562Z,100840.67
2023-03-29T14:52:47.575Z,100844.09
2023-03-29T14:55:01.334Z,100849.20
2023-03-29T14:57:15.923Z,100851.80
2023-03-29T14:59:38.484Z,100858.23
2023-03-29T15:01:49.514Z,100856.42
2023-03-29T15:04:08.106Z,100854.77
2023-03-29T15:06:18.902Z,100857.62
2023-03-29T15:08:34.782Z,100856.30
2023-03-29T15:10:45.155Z,100855.48
2023-03-29T15:12:55.704Z,100854.90
2023-03-29T15:15:08.214Z,100858.27
2023-03-29T15:17:28.068Z,100861.65
2023-03-29T15:19:43.479Z,100867.64
2023-03-29T15:21:54.729Z,100865.42
2023-03-29T15:24:06.409Z,100863.69
2023-03-29T15:26:23.813Z,100867.09
2023-03-29T15:28:35.621Z,100873.21
2023-03-29T15:31:00.790Z,100875.45
2023-03-29T15:33:25.387Z,100873.91
2023-03-29T15:35:35.556Z,100877.28
2023-03-29T15:37:47.763Z,100873.56
2023-03-29T15:39:58.099Z,100872.63
2023-03-29T15:42:08.578Z,100873.26
2023-03-29T15:44:19.633Z,100871.94
2023-03-29T15:46:29.833Z,100873.56
2023-03-29T15:48:39.813Z,100876.05
2023-03-29T15:50:49.763Z,100873.20
2023-03-29T15:53:14.103Z,100870.97
2023-03-29T15:55:26.591Z,100874.19
2023-03-29T15:57:37.457Z,100872.23
2023-03-29T15:59:48.504Z,100872.05
2023-03-29T16:01:58.775Z,100873.98
2023-03-29T16:04:12.410Z,100876.02
2023-03-29T16:06:24.349Z,100878.50
2023-03-29T16:08:34.430Z,100883.45
2023-03-29T16:10:45.452Z,100887.15
2023-03-29T16:12:55.545Z,100891.64
2023-03-29T16:15:10.904Z,100897.86
2023-03-29T16:17:20.565Z,100899.15
2023-03-29T16:19:31.496Z,100896.77
2023-03-29T16:21:43.834Z,100896.08
2023-03-29T16:23:53.779Z,100889.92
2023-03-29T16:26:03.795Z,100885.80
2023-03-29T16:28:17.172Z,100881.52
2023-03-29T16:30:27.004Z,100875.42
2023-03-29T16:32:36.872Z,100877.05
2023-03-29T16:34:46.914Z,100869.70
2023-03-29T16:36:57.343Z,100870.17
2023-03-29T16:39:07.321Z,100874.54
2023-03-29T16:41:19.480Z,100874.96
2023-03-29T16:43:30.473Z,100882.44
2023-03-29T16:45:40.837Z,100883.81
2023-03-29T16:47:51.228Z,100891.52
2023-03-29T16:50:01.647Z,100898.08
2023-03-29T16:52:12.602Z,100895.91
2023-03-29T16:54:22.714Z,100895.15
2023-03-29T16:56:32.433Z,100898.94
2023-03-29T16:58:44.629Z,100901.73
2023-03-29T17:00:56.324Z,100902.45
2023-03-29T17:03:06.725Z,100903.78
2023-03-29T17:05:16.660Z,100908.48
2023-03-29T17:07:26.811Z,100916.78
2023-03-29T17:09:37.511Z,100915.00
2023-03-29T17:11:47.712Z,100912.52
2023-03-29T17:13:57.436Z,100907.95
2023-03-29T17:16:07.812Z,100904.63
2023-03-29T17:18:17.592Z,100905.58
2023-03-29T17:20:27.498Z,100908.35
2023-03-29T17:22:37.513Z,100907.88
2023-03-29T17:24:47.237Z,100912.46
2023-03-29T17:26:56.929Z,100914.50
2023-03-29T17:29:07.445Z,100920.48
2023-03-29T17:31:19.666Z,100919.45
2023-03-29T17:33:29.692Z,100913.34
2023-03-29T17:35:40.124Z,100921.70
2023-03-29T17:37:49.952Z,100926.66
2023-03-29T17:39:59.990Z,100936.66
2023-03-29T17:42:10.508Z,100938.13
2023-03-29T17:44:21.775Z,100936.15
2023-03-29T17:46:31.779Z,100937.90
2023-03-29T17:48:41.745Z,100937.81
2023-03-29T17:50:51.623Z,100937.75
2023-03-29T17:53:01.314Z,100940.23
2023-03-29T17:55:14.076Z,100946.16
2023-03-29T17:57:24.273Z,100945.02
2023-03-29T17:59:34.422Z,100945.88
2023-03-29T18:01:44.764Z,100942.95
2023-03-29T18:03:55.342Z,100940.80
2023-03-29T18:06:06.230Z,100938.94
2023-03-29T18:08:17.490Z,100938.41
2023-03-29T18:10:27.249Z,100934.52
2023-03-29T18:12:37.283Z,100930.61
2023-03-29T18:14:47.477Z,100931.25
2023-03-29T18:16:58.234Z,100927.95
2023-03-29T18:19:08.082Z,100930.05
2023-03-29T18:21:18.653Z,100928.91
2023-03-29T18:23:28.423Z,100929.62
2023-03-29T18:25:39.339Z,100927.66
2023-03-29T18:27:50.633Z,100930.41
2023-03-29T18:30:00.534Z,100931.93
2023-03-29T18:32:10.933Z,100937.73
2023-03-29T18:34:21.414Z,100943.80
2023-03-29T18:36:32.800Z,100942.21
2023-03-29T18:38:44.026Z,100934.95
2023-03-29T18:40:54.507Z,100934.84
2023-03-29T18:43:04.685Z,100930.07
2023-03-29T18:45:15.919Z,100938.52
2023-03-29T18:47:26.081Z,100937.65
2023-03-29T18:49:37.206Z,100942.60
2023-03-29T18:51:48.018Z,100942.31
2023-03-29T18:53:58.223Z,100949.21
2023-03-29T18:56:08.569Z,100948.40
2023-03-29T18:58:20.767Z,100950.95
2023-03-29T19:00:30.705Z,100953.94
2023-03-29T19:02:40.911Z,100953.98
2023-03-29T19:04:51.756Z,100956.22
2023-03-29T19:07:01.951Z,100958.69
2023-03-29T19:09:11.648Z,100961.92
2023-03-29T19:11:21.968Z,100963.86
2023-03-29T19:13:31.719Z,100966.05
2023-03-29T19:15:41.821Z,100966.29
2023-03-29T19:17:51.932Z,100965.26
2023-03-29T19:20:02.082Z,100965.33
2023-03-29T19:22:12.032Z,100965.46
2023-03-29T19:24:22.479Z,100965.91
2023-03-29T19:26:33.815Z,100962.80
2023-03-29T19:28:43.557Z,100960.86
2023-03-29T19:30:53.371Z,100958.33
2023-03-29T19:33:03.961Z,100955.49
2023-03-29T19:35:14.549Z,100961.17
2023-03-29T19:37:24.377Z,100962.73
2023-03-29T19:39:34.385Z,100963.72
2023-03-29T19:41:47.064Z,100969.43
2023-03-29T19:43:57.342Z,100966.50
2023-03-29T19:46:13.400Z,100969.00
2023-03-29T19:48:24.315Z,100969.09
2023-03-29T19:50:34.772Z,100973.77
2023-03-29T19:52:44.605Z,100970.62
2023-03-29T19:54:54.543Z,100968.79
2023-03-29T19:57:05.106Z,100969.29
2023-03-29T19:59:18.483Z,100967.91
2023-03-29T20:01:28.574Z,100961.50
2023-03-29T20:03:39.107Z,100961.84
2023-03-29T20:05:50.605Z,100963.78
2023-03-29T20:08:00.203Z,100963.19
2023-03-29T20:10:11.569Z,100967.83
2023-03-29T20:12:22.000Z,100967.45
2023-03-29T20:14:32.013Z,100962.95
2023-03-29T20:16:43.159Z,100965.48
2023-03-29T20:18:54.491Z,100962.42
2023-03-29T20:21:04.711Z,100958.53
2023-03-29T20:23:16.070Z,100954.83
2023-03-29T20:25:26.295Z,100955.55
2023-03-29T20:27:36.150Z,100954.14
2023-03-29T20:29:46.111Z,100957.39
2023-03-29T20:31:55.704Z,100958.11
2023-03-29T20:34:05.796Z,100955.96
2023-03-29T20:36:19.169Z,100956.94
2023-03-29T20:38:29.071Z,100958.67
2023-03-29T20:40:39.422Z,100956.09
2023-03-29T20:42:54.732Z,100960.63
2023-03-29T20:45:05.369Z,100959.65
2023-03-29T20:47:17.274Z,100951.23
2023-03-29T20:49:27.872Z,100950.95
2023-03-29T20:51:39.645Z,100950.66
2023-03-29T20:53:49.754Z,100946.61
2023-03-29T20:55:59.652Z,100947.88
2023-03-29T20:58:10.365Z,100943.17
2023-03-29T21:00:21.470Z,100937.81
2023-03-29T21:02:31.165Z,100936.27
2023-03-29T21:04:41.333Z,100937.48
2023-03-29T21:06:51.434Z,100937.71
2023-03-29T21:09:03.042Z,100946.02
2023-03-29T21:11:18.742Z,100947.79
2023-03-29T21:13:28.905Z,100948.25
2023-03-29T21:15:39.123Z,100948.39
2023-03-29T21:17:49.284Z,100952.52
2023-03-29T21:19:59.572Z,100958.73
2023-03-29T21:22:10.284Z,100960.41
2023-03-29T21:24:21.274Z,100963.59
2023-03-29T21:26:31.001Z,100968.55
2023-03-29T21:28:41.663Z,100969.42
2023-03-29T21:30:51.633Z,100977.25
2023-03-29T21:33:01.978Z,100979.34
2023-03-29T21:35:14.093Z,100977.48
2023-03-29T21:37:24.044Z,100978.64
2023-03-29T21:39:34.021Z,100976.30
2023-03-29T21:41:43.851Z,100974.92
2023-03-29T21:43:54.433Z,100971.66
2023-03-29T21:46:04.336Z,100973.45
2023-03-29T21:48:14.211Z,100974.12
2023-03-29T21:50:24.301Z,100973.21
2023-03-29T21:52:34.035Z,100972.56
2023-03-29T21:54:43.714Z,100972.02
2023-03-29T21:56:53.911Z,100969.31
2023-03-29T21:59:04.114Z,100966.05
2023-03-29T22:01:14.196Z,100965.70
2023-03-29T22:03:24.367Z,100967.78
2023-03-29T22:05:35.030Z,100965.63
2023-03-29T22:07:45.070Z,100963.39
2023-03-29T22:09:55.209Z,100951.52
2023-03-29T22:12:05.399Z,100955.02
2023-03-29T22:14:15.966Z,100953.23
2023-03-29T22:16:28.631Z,100954.98
2023-03-29T22:18:47.435Z,100955.20
2023-03-29T22:20:57.290Z,100956.18
2023-03-29T22:23:07.687Z,100949.44
2023-03-29T22:25:18.246Z,100947.95
2023-03-29T22:27:27.891Z,100944.91
2023-03-29T22:29:37.769Z,100940.27
2023-03-29T22:31:47.677Z,100940.16
2023-03-29T22:33:59.114Z,100933.73
2023-03-29T22:36:16.901Z,100930.04
2023-03-29T22:38:26.679Z,100926.27
2023-03-29T22:40:36.649Z,100920.30
2023-03-29T22:42:47.198Z,100915.05
2023-03-29T22:44:57.951Z,100915.39
2023-03-29T22:47:07.984Z,100916.17
2023-03-29T22:49:17.875Z,100918.05
2023-03-29T22:51:27.946Z,100917.79
2023-03-29T22:53:38.052Z,100914.92
2023-03-29T22:55:47.819Z,100913.84
2023-03-29T22:57:57.936Z,100910.19
2023-03-29T23:00:09.531Z,100905.52
2023-03-29T23:02:19.779Z,100902.35
2023-03-29T23:04:29.880Z,100899.03
2023-03-29T23:06:39.862Z,100901.80
2023-03-29T23:08:49.710Z,100903.44
2023-03-29T23:11:00.039Z,100898.79
2023-03-29T23:13:10.121Z,100897.67
2023-03-29T23:15:23.333Z,100896.48
2023-03-29T23:17:33.184Z,100895.39
2023-03-29T23:19:43.050Z,100897.77
2023-03-29T23:21:53.512Z,100899.18
2023-03-29T23:24:03.644Z,100905.52
2023-03-29T23:26:15.008Z,100906.31
2023-03-29T23:28:27.676Z,100904.57
2023-03-29T23:30:39.425Z,100902.63
2023-03-29T23:32:49.295Z,100902.42
2023-03-29T23:35:00.502Z,100906.33
2023-03-29T23:38:23.375Z,100904.08
2023-03-29T23:40:24.100Z,100909.49
2023-03-29T23:42:44.031Z,100909.71
2023-03-29T23:44:53.959Z,100913.98
2023-03-29T23:47:04.203Z,100913.23
2023-03-29T23:49:14.330Z,100913.09
2023-03-29T23:51:28.649Z,100907.59
2023-03-29T23:53:38.267Z,100913.02
2023-03-29T23:55:49.162Z,100916.29
2023-03-29T23:57:58.800Z,100915.52
